sensor_id;sensor_type;location;lat;lon;timestamp;P1;durP1;ratioP1;P2;durP2;ratioP2
82992;SDS011;72811;50.844;3.228;2023-10-08T00:01:53;7.47;;;3.22;;
82992;SDS011;72811;50.844;3.228;2023-10-08T00:04:21;8.75;;;3.92;;
82992;SDS011;72811;50.844;3.228;2023-10-08T00:06:47;10.10;;;3.75;;
82992;SDS011;72811;50.844;3.228;2023-10-08T00:09:13;11.20;;;3.58;;
82992;SDS011;72811;50.844;3.228;2023-10-08T00:11:41;12.07;;;3.78;;
82992;SDS011;72811;50.844;3.228;2023-10-08T00:14:07;7.55;;;3.30;;
82992;SDS011;72811;50.844;3.228;2023-10-08T00:16:38;8.15;;;3.60;;
82992;SDS011;72811;50.844;3.228;2023-10-08T00:19:05;10.15;;;3.67;;
82992;SDS011;72811;50.844;3.228;2023-10-08T00:21:40;10.35;;;3.75;;
82992;SDS011;72811;50.844;3.228;2023-10-08T00:24:09;12.57;;;3.70;;
82992;SDS011;72811;50.844;3.228;2023-10-08T00:26:35;11.05;;;4.10;;
82992;SDS011;72811;50.844;3.228;2023-10-08T00:29:05;7.95;;;3.78;;
82992;SDS011;72811;50.844;3.228;2023-10-08T00:31:43;9.43;;;3.40;;
82992;SDS011;72811;50.844;3.228;2023-10-08T00:34:11;9.95;;;3.45;;
82992;SDS011;72811;50.844;3.228;2023-10-08T00:36:38;11.93;;;3.92;;
82992;SDS011;72811;50.844;3.228;2023-10-08T00:39:12;9.82;;;3.88;;
82992;SDS011;72811;50.844;3.228;2023-10-08T00:41:42;7.88;;;3.45;;
82992;SDS011;72811;50.844;3.228;2023-10-08T00:44:16;8.73;;;3.53;;
82992;SDS011;72811;50.844;3.228;2023-10-08T00:47:02;13.05;;;4.20;;
82992;SDS011;72811;50.844;3.228;2023-10-08T00:49:30;9.55;;;3.78;;
82992;SDS011;72811;50.844;3.228;2023-10-08T00:52:19;8.85;;;3.40;;
82992;SDS011;72811;50.844;3.228;2023-10-08T00:54:54;9.20;;;3.70;;
82992;SDS011;72811;50.844;3.228;2023-10-08T00:57:30;9.85;;;3.83;;
82992;SDS011;72811;50.844;3.228;2023-10-08T00:59:59;7.03;;;3.23;;
82992;SDS011;72811;50.844;3.228;2023-10-08T01:02:26;9.65;;;3.65;;
82992;SDS011;72811;50.844;3.228;2023-10-08T01:04:55;9.57;;;3.40;;
82992;SDS011;72811;50.844;3.228;2023-10-08T01:07:21;6.03;;;3.13;;
82992;SDS011;72811;50.844;3.228;2023-10-08T01:09:50;8.85;;;3.67;;
82992;SDS011;72811;50.844;3.228;2023-10-08T01:12:20;8.73;;;3.55;;
82992;SDS011;72811;50.844;3.228;2023-10-08T01:15:00;9.90;;;3.40;;
82992;SDS011;72811;50.844;3.228;2023-10-08T01:17:53;7.35;;;3.83;;
82992;SDS011;72811;50.844;3.228;2023-10-08T01:20:26;11.48;;;4.35;;
82992;SDS011;72811;50.844;3.228;2023-10-08T01:23:00;9.60;;;3.72;;
82992;SDS011;72811;50.844;3.228;2023-10-08T01:25:45;8.30;;;3.20;;
82992;SDS011;72811;50.844;3.228;2023-10-08T01:28:18;9.15;;;3.50;;
82992;SDS011;72811;50.844;3.228;2023-10-08T01:30:52;12.48;;;3.67;;
82992;SDS011;72811;50.844;3.228;2023-10-08T01:33:19;8.25;;;3.60;;
82992;SDS011;72811;50.844;3.228;2023-10-08T01:35:53;7.90;;;3.50;;
82992;SDS011;72811;50.844;3.228;2023-10-08T01:38:19;10.25;;;3.78;;
82992;SDS011;72811;50.844;3.228;2023-10-08T01:40:51;7.80;;;3.33;;
82992;SDS011;72811;50.844;3.228;2023-10-08T01:43:17;10.40;;;3.90;;
82992;SDS011;72811;50.844;3.228;2023-10-08T01:45:43;8.80;;;3.90;;
82992;SDS011;72811;50.844;3.228;2023-10-08T01:48:13;9.25;;;4.05;;
82992;SDS011;72811;50.844;3.228;2023-10-08T01:50:46;10.40;;;3.97;;
82992;SDS011;72811;50.844;3.228;2023-10-08T01:53:13;9.10;;;4.18;;
82992;SDS011;72811;50.844;3.228;2023-10-08T01:55:41;11.40;;;3.83;;
82992;SDS011;72811;50.844;3.228;2023-10-08T01:58:17;10.27;;;4.20;;
82992;SDS011;72811;50.844;3.228;2023-10-08T02:00:44;10.25;;;4.10;;
82992;SDS011;72811;50.844;3.228;2023-10-08T02:03:11;13.18;;;3.90;;
82992;SDS011;72811;50.844;3.228;2023-10-08T02:05:44;9.32;;;3.95;;
82992;SDS011;72811;50.844;3.228;2023-10-08T02:08:11;7.88;;;3.85;;
82992;SDS011;72811;50.844;3.228;2023-10-08T02:10:41;9.88;;;4.50;;
82992;SDS011;72811;50.844;3.228;2023-10-08T02:13:09;13.10;;;5.20;;
82992;SDS011;72811;50.844;3.228;2023-10-08T02:15:36;10.10;;;4.00;;
82992;SDS011;72811;50.844;3.228;2023-10-08T02:18:05;11.23;;;4.00;;
82992;SDS011;72811;50.844;3.228;2023-10-08T02:20:32;8.80;;;3.58;;
82992;SDS011;72811;50.844;3.228;2023-10-08T02:22:58;7.85;;;3.72;;
82992;SDS011;72811;50.844;3.228;2023-10-08T02:25:25;9.30;;;3.78;;
82992;SDS011;72811;50.844;3.228;2023-10-08T02:27:51;11.10;;;4.03;;
82992;SDS011;72811;50.844;3.228;2023-10-08T02:30:16;10.52;;;4.03;;
82992;SDS011;72811;50.844;3.228;2023-10-08T02:32:43;11.15;;;3.88;;
82992;SDS011;72811;50.844;3.228;2023-10-08T02:35:10;9.02;;;3.80;;
82992;SDS011;72811;50.844;3.228;2023-10-08T02:37:39;10.98;;;4.18;;
82992;SDS011;72811;50.844;3.228;2023-10-08T02:40:09;8.38;;;3.60;;
82992;SDS011;72811;50.844;3.228;2023-10-08T02:42:46;10.88;;;3.83;;
82992;SDS011;72811;50.844;3.228;2023-10-08T02:45:13;7.88;;;3.58;;
82992;SDS011;72811;50.844;3.228;2023-10-08T02:47:40;7.25;;;3.50;;
82992;SDS011;72811;50.844;3.228;2023-10-08T02:50:10;9.68;;;3.88;;
82992;SDS011;72811;50.844;3.228;2023-10-08T02:52:36;9.73;;;4.18;;
82992;SDS011;72811;50.844;3.228;2023-10-08T02:55:02;11.18;;;4.30;;
82992;SDS011;72811;50.844;3.228;2023-10-08T02:57:28;8.45;;;3.67;;
82992;SDS011;72811;50.844;3.228;2023-10-08T02:59:55;8.18;;;3.60;;
82992;SDS011;72811;50.844;3.228;2023-10-08T03:02:21;8.13;;;3.47;;
82992;SDS011;72811;50.844;3.228;2023-10-08T03:04:47;11.45;;;3.78;;
82992;SDS011;72811;50.844;3.228;2023-10-08T03:07:17;7.87;;;3.60;;
82992;SDS011;72811;50.844;3.228;2023-10-08T03:09:57;10.38;;;3.80;;
82992;SDS011;72811;50.844;3.228;2023-10-08T03:12:42;11.65;;;3.97;;
82992;SDS011;72811;50.844;3.228;2023-10-08T03:15:11;9.05;;;4.35;;
82992;SDS011;72811;50.844;3.228;2023-10-08T03:17:40;9.50;;;3.63;;
82992;SDS011;72811;50.844;3.228;2023-10-08T03:20:16;10.35;;;3.90;;
82992;SDS011;72811;50.844;3.228;2023-10-08T03:23:15;7.47;;;3.75;;
82992;SDS011;72811;50.844;3.228;2023-10-08T03:25:51;7.18;;;3.83;;
82992;SDS011;72811;50.844;3.228;2023-10-08T03:28:35;9.20;;;3.80;;
82992;SDS011;72811;50.844;3.228;2023-10-08T03:31:03;8.05;;;3.80;;
82992;SDS011;72811;50.844;3.228;2023-10-08T03:33:33;8.40;;;4.28;;
82992;SDS011;72811;50.844;3.228;2023-10-08T03:38:55;9.73;;;3.50;;
82992;SDS011;72811;50.844;3.228;2023-10-08T03:41:22;9.90;;;3.92;;
82992;SDS011;72811;50.844;3.228;2023-10-08T03:43:53;8.10;;;3.80;;
82992;SDS011;72811;50.844;3.228;2023-10-08T03:46:25;8.32;;;3.40;;
82992;SDS011;72811;50.844;3.228;2023-10-08T03:48:51;8.73;;;3.42;;
82992;SDS011;72811;50.844;3.228;2023-10-08T03:51:18;11.50;;;3.70;;
82992;SDS011;72811;50.844;3.228;2023-10-08T03:56:45;7.82;;;3.63;;
82992;SDS011;72811;50.844;3.228;2023-10-08T03:59:13;8.43;;;3.30;;
82992;SDS011;72811;50.844;3.228;2023-10-08T04:01:55;7.53;;;3.30;;
82992;SDS011;72811;50.844;3.228;2023-10-08T04:04:24;10.43;;;3.33;;
82992;SDS011;72811;50.844;3.228;2023-10-08T04:07:15;11.30;;;3.90;;
82992;SDS011;72811;50.844;3.228;2023-10-08T04:10:02;9.25;;;4.18;;
82992;SDS011;72811;50.844;3.228;2023-10-08T04:12:33;9.95;;;3.95;;
82992;SDS011;72811;50.844;3.228;2023-10-08T04:15:09;13.15;;;4.10;;
82992;SDS011;72811;50.844;3.228;2023-10-08T04:17:37;8.70;;;4.20;;
82992;SDS011;72811;50.844;3.228;2023-10-08T04:20:14;11.07;;;4.30;;
82992;SDS011;72811;50.844;3.228;2023-10-08T04:22:59;11.75;;;4.40;;
82992;SDS011;72811;50.844;3.228;2023-10-08T04:25:29;7.85;;;3.38;;
82992;SDS011;72811;50.844;3.228;2023-10-08T04:27:58;8.18;;;3.60;;
82992;SDS011;72811;50.844;3.228;2023-10-08T04:30:34;9.27;;;4.15;;
82992;SDS011;72811;50.844;3.228;2023-10-08T04:33:02;13.88;;;4.30;;
82992;SDS011;72811;50.844;3.228;2023-10-08T04:35:35;8.38;;;3.92;;
82992;SDS011;72811;50.844;3.228;2023-10-08T04:38:04;11.45;;;3.67;;
82992;SDS011;72811;50.844;3.228;2023-10-08T04:40:34;10.02;;;4.55;;
82992;SDS011;72811;50.844;3.228;2023-10-08T04:43:16;12.20;;;4.57;;
82992;SDS011;72811;50.844;3.228;2023-10-08T04:45:59;8.52;;;3.85;;
82992;SDS011;72811;50.844;3.228;2023-10-08T04:48:45;13.40;;;4.30;;
82992;SDS011;72811;50.844;3.228;2023-10-08T04:51:11;10.85;;;4.95;;
82992;SDS011;72811;50.844;3.228;2023-10-08T04:53:40;10.48;;;4.53;;
82992;SDS011;72811;50.844;3.228;2023-10-08T04:58:58;12.10;;;4.93;;
82992;SDS011;72811;50.844;3.228;2023-10-08T05:01:23;11.10;;;4.65;;
82992;SDS011;72811;50.844;3.228;2023-10-08T05:04:11;7.80;;;3.97;;
82992;SDS011;72811;50.844;3.228;2023-10-08T05:07:03;13.65;;;5.00;;
82992;SDS011;72811;50.844;3.228;2023-10-08T05:09:43;11.95;;;4.40;;
82992;SDS011;72811;50.844;3.228;2023-10-08T05:12:28;8.52;;;4.28;;
82992;SDS011;72811;50.844;3.228;2023-10-08T05:15:08;8.93;;;4.45;;
82992;SDS011;72811;50.844;3.228;2023-10-08T05:17:40;10.68;;;4.88;;
82992;SDS011;72811;50.844;3.228;2023-10-08T05:20:20;7.68;;;3.88;;
82992;SDS011;72811;50.844;3.228;2023-10-08T05:23:09;8.13;;;4.22;;
82992;SDS011;72811;50.844;3.228;2023-10-08T05:26:02;7.18;;;4.28;;
82992;SDS011;72811;50.844;3.228;2023-10-08T05:28:31;14.07;;;4.90;;
82992;SDS011;72811;50.844;3.228;2023-10-08T05:31:30;11.93;;;4.70;;
82992;SDS011;72811;50.844;3.228;2023-10-08T05:34:12;12.70;;;5.60;;
82992;SDS011;72811;50.844;3.228;2023-10-08T05:37:10;12.27;;;5.20;;
82992;SDS011;72811;50.844;3.228;2023-10-08T05:39:56;13.30;;;5.03;;
82992;SDS011;72811;50.844;3.228;2023-10-08T05:42:35;13.37;;;4.87;;
82992;SDS011;72811;50.844;3.228;2023-10-08T05:45:11;9.07;;;4.43;;
82992;SDS011;72811;50.844;3.228;2023-10-08T05:47:36;9.18;;;4.82;;
82992;SDS011;72811;50.844;3.228;2023-10-08T05:50:03;9.05;;;4.18;;
82992;SDS011;72811;50.844;3.228;2023-10-08T05:52:46;14.05;;;4.70;;
82992;SDS011;72811;50.844;3.228;2023-10-08T05:55:18;11.45;;;5.15;;
82992;SDS011;72811;50.844;3.228;2023-10-08T05:58:26;10.77;;;4.78;;
82992;SDS011;72811;50.844;3.228;2023-10-08T06:00:46;13.35;;;5.78;;
82992;SDS011;72811;50.844;3.228;2023-10-08T06:03:15;14.40;;;4.95;;
82992;SDS011;72811;50.844;3.228;2023-10-08T06:06:12;10.75;;;5.03;;
82992;SDS011;72811;50.844;3.228;2023-10-08T06:11:38;12.38;;;4.35;;
82992;SDS011;72811;50.844;3.228;2023-10-08T06:14:23;12.45;;;5.15;;
82992;SDS011;72811;50.844;3.228;2023-10-08T06:17:18;9.48;;;4.10;;
82992;SDS011;72811;50.844;3.228;2023-10-08T06:20:12;14.38;;;5.05;;
82992;SDS011;72811;50.844;3.228;2023-10-08T06:22:41;11.80;;;4.75;;
82992;SDS011;72811;50.844;3.228;2023-10-08T06:25:08;12.25;;;5.15;;
82992;SDS011;72811;50.844;3.228;2023-10-08T06:27:48;10.82;;;4.97;;
82992;SDS011;72811;50.844;3.228;2023-10-08T06:30:20;14.65;;;5.05;;
82992;SDS011;72811;50.844;3.228;2023-10-08T06:32:46;12.40;;;4.68;;
82992;SDS011;72811;50.844;3.228;2023-10-08T06:35:15;9.52;;;5.05;;
82992;SDS011;72811;50.844;3.228;2023-10-08T06:37:44;12.90;;;5.00;;
82992;SDS011;72811;50.844;3.228;2023-10-08T06:40:11;9.10;;;4.63;;
82992;SDS011;72811;50.844;3.228;2023-10-08T06:42:55;11.13;;;5.03;;
82992;SDS011;72811;50.844;3.228;2023-10-08T06:45:22;13.02;;;5.13;;
82992;SDS011;72811;50.844;3.228;2023-10-08T06:47:48;14.50;;;5.13;;
82992;SDS011;72811;50.844;3.228;2023-10-08T06:50:15;14.30;;;5.85;;
82992;SDS011;72811;50.844;3.228;2023-10-08T06:52:43;12.75;;;5.63;;
82992;SDS011;72811;50.844;3.228;2023-10-08T06:55:11;15.48;;;5.22;;
82992;SDS011;72811;50.844;3.228;2023-10-08T06:57:37;9.85;;;4.72;;
82992;SDS011;72811;50.844;3.228;2023-10-08T07:00:04;17.98;;;5.90;;
82992;SDS011;72811;50.844;3.228;2023-10-08T07:02:55;11.85;;;4.78;;
82992;SDS011;72811;50.844;3.228;2023-10-08T07:05:21;14.88;;;5.32;;
82992;SDS011;72811;50.844;3.228;2023-10-08T07:07:47;12.88;;;5.28;;
82992;SDS011;72811;50.844;3.228;2023-10-08T07:10:25;11.77;;;4.95;;
82992;SDS011;72811;50.844;3.228;2023-10-08T07:12:51;10.60;;;5.03;;
82992;SDS011;72811;50.844;3.228;2023-10-08T07:15:18;9.80;;;4.95;;
82992;SDS011;72811;50.844;3.228;2023-10-08T07:17:49;11.52;;;4.78;;
82992;SDS011;72811;50.844;3.228;2023-10-08T07:20:19;10.13;;;5.30;;
82992;SDS011;72811;50.844;3.228;2023-10-08T07:22:48;9.43;;;4.38;;
82992;SDS011;72811;50.844;3.228;2023-10-08T07:25:22;9.18;;;4.95;;
82992;SDS011;72811;50.844;3.228;2023-10-08T07:27:48;12.40;;;5.10;;
82992;SDS011;72811;50.844;3.228;2023-10-08T07:30:16;11.60;;;4.70;;
82992;SDS011;72811;50.844;3.228;2023-10-08T07:32:52;12.23;;;5.25;;
82992;SDS011;72811;50.844;3.228;2023-10-08T07:35:23;11.73;;;5.03;;
82992;SDS011;72811;50.844;3.228;2023-10-08T07:37:54;13.32;;;4.85;;
82992;SDS011;72811;50.844;3.228;2023-10-08T07:40:20;8.60;;;4.87;;
82992;SDS011;72811;50.844;3.228;2023-10-08T07:42:46;10.10;;;4.93;;
82992;SDS011;72811;50.844;3.228;2023-10-08T07:45:17;8.57;;;4.90;;
82992;SDS011;72811;50.844;3.228;2023-10-08T07:50:13;12.57;;;5.28;;
82992;SDS011;72811;50.844;3.228;2023-10-08T07:52:41;15.15;;;5.22;;
82992;SDS011;72811;50.844;3.228;2023-10-08T07:55:09;16.98;;;4.97;;
82992;SDS011;72811;50.844;3.228;2023-10-08T07:57:42;13.73;;;5.45;;
82992;SDS011;72811;50.844;3.228;2023-10-08T08:00:08;9.02;;;5.13;;
82992;SDS011;72811;50.844;3.228;2023-10-08T08:02:47;12.98;;;4.97;;
82992;SDS011;72811;50.844;3.228;2023-10-08T08:05:13;13.27;;;5.30;;
82992;SDS011;72811;50.844;3.228;2023-10-08T08:07:42;10.20;;;5.30;;
82992;SDS011;72811;50.844;3.228;2023-10-08T08:10:12;11.18;;;4.88;;
82992;SDS011;72811;50.844;3.228;2023-10-08T08:12:39;11.60;;;5.55;;
82992;SDS011;72811;50.844;3.228;2023-10-08T08:15:08;13.88;;;5.82;;
82992;SDS011;72811;50.844;3.228;2023-10-08T08:17:41;11.25;;;5.32;;
82992;SDS011;72811;50.844;3.228;2023-10-08T08:20:07;10.88;;;5.47;;
82992;SDS011;72811;50.844;3.228;2023-10-08T08:22:43;12.45;;;5.68;;
82992;SDS011;72811;50.844;3.228;2023-10-08T08:25:19;9.23;;;5.07;;
82992;SDS011;72811;50.844;3.228;2023-10-08T08:28:01;11.68;;;5.30;;
82992;SDS011;72811;50.844;3.228;2023-10-08T08:30:31;11.52;;;5.32;;
82992;SDS011;72811;50.844;3.228;2023-10-08T08:32:58;11.82;;;5.15;;
82992;SDS011;72811;50.844;3.228;2023-10-08T08:35:26;10.85;;;5.50;;
82992;SDS011;72811;50.844;3.228;2023-10-08T08:37:51;12.25;;;5.32;;
82992;SDS011;72811;50.844;3.228;2023-10-08T08:40:20;11.15;;;5.32;;
82992;SDS011;72811;50.844;3.228;2023-10-08T08:42:52;12.57;;;5.93;;
82992;SDS011;72811;50.844;3.228;2023-10-08T08:45:21;8.80;;;5.32;;
82992;SDS011;72811;50.844;3.228;2023-10-08T08:47:49;12.57;;;6.60;;
82992;SDS011;72811;50.844;3.228;2023-10-08T08:50:16;12.32;;;5.78;;
82992;SDS011;72811;50.844;3.228;2023-10-08T08:52:44;12.10;;;6.10;;
82992;SDS011;72811;50.844;3.228;2023-10-08T08:55:14;11.88;;;5.78;;
82992;SDS011;72811;50.844;3.228;2023-10-08T08:57:42;13.32;;;5.65;;
82992;SDS011;72811;50.844;3.228;2023-10-08T09:00:10;14.32;;;6.13;;
82992;SDS011;72811;50.844;3.228;2023-10-08T09:02:37;10.85;;;5.68;;
82992;SDS011;72811;50.844;3.228;2023-10-08T09:05:04;16.00;;;5.90;;
82992;SDS011;72811;50.844;3.228;2023-10-08T09:10:32;11.90;;;5.43;;
82992;SDS011;72811;50.844;3.228;2023-10-08T09:13:06;12.30;;;6.18;;
82992;SDS011;72811;50.844;3.228;2023-10-08T09:15:36;12.98;;;6.38;;
82992;SDS011;72811;50.844;3.228;2023-10-08T09:18:03;10.02;;;5.40;;
82992;SDS011;72811;50.844;3.228;2023-10-08T09:20:30;10.63;;;5.75;;
82992;SDS011;72811;50.844;3.228;2023-10-08T09:23:15;12.02;;;5.95;;
82992;SDS011;72811;50.844;3.228;2023-10-08T09:25:46;13.25;;;5.95;;
82992;SDS011;72811;50.844;3.228;2023-10-08T09:28:15;11.45;;;5.72;;
82992;SDS011;72811;50.844;3.228;2023-10-08T09:30:42;16.08;;;6.15;;
82992;SDS011;72811;50.844;3.228;2023-10-08T09:33:12;13.63;;;6.47;;
82992;SDS011;72811;50.844;3.228;2023-10-08T09:35:39;14.52;;;6.63;;
82992;SDS011;72811;50.844;3.228;2023-10-08T09:38:06;10.35;;;6.28;;
82992;SDS011;72811;50.844;3.228;2023-10-08T09:40:39;14.10;;;6.93;;
82992;SDS011;72811;50.844;3.228;2023-10-08T09:43:07;13.13;;;6.30;;
82992;SDS011;72811;50.844;3.228;2023-10-08T09:45:36;12.97;;;6.80;;
82992;SDS011;72811;50.844;3.228;2023-10-08T09:48:09;13.85;;;6.18;;
82992;SDS011;72811;50.844;3.228;2023-10-08T09:50:38;17.77;;;7.47;;
82992;SDS011;72811;50.844;3.228;2023-10-08T09:53:09;11.10;;;6.68;;
82992;SDS011;72811;50.844;3.228;2023-10-08T09:55:57;14.05;;;6.88;;
82992;SDS011;72811;50.844;3.228;2023-10-08T09:58:24;12.43;;;6.43;;
82992;SDS011;72811;50.844;3.228;2023-10-08T10:00:54;15.23;;;6.88;;
82992;SDS011;72811;50.844;3.228;2023-10-08T10:03:22;15.38;;;6.95;;
82992;SDS011;72811;50.844;3.228;2023-10-08T10:05:51;16.38;;;6.75;;
82992;SDS011;72811;50.844;3.228;2023-10-08T10:08:20;14.90;;;7.32;;
82992;SDS011;72811;50.844;3.228;2023-10-08T10:10:50;16.17;;;6.68;;
82992;SDS011;72811;50.844;3.228;2023-10-08T10:13:29;11.57;;;6.25;;
82992;SDS011;72811;50.844;3.228;2023-10-08T10:16:10;13.23;;;7.03;;
82992;SDS011;72811;50.844;3.228;2023-10-08T10:18:38;15.20;;;6.57;;
82992;SDS011;72811;50.844;3.228;2023-10-08T10:23:40;15.20;;;6.70;;
82992;SDS011;72811;50.844;3.228;2023-10-08T10:34:30;13.60;;;6.93;;
82992;SDS011;72811;50.844;3.228;2023-10-08T10:37:00;11.60;;;6.65;;
82992;SDS011;72811;50.844;3.228;2023-10-08T10:39:50;13.45;;;6.47;;
82992;SDS011;72811;50.844;3.228;2023-10-08T10:42:29;12.85;;;6.25;;
82992;SDS011;72811;50.844;3.228;2023-10-08T10:44:55;11.82;;;6.68;;
82992;SDS011;72811;50.844;3.228;2023-10-08T10:47:22;14.27;;;6.53;;
82992;SDS011;72811;50.844;3.228;2023-10-08T10:49:51;13.43;;;6.45;;
82992;SDS011;72811;50.844;3.228;2023-10-08T10:52:25;10.20;;;5.82;;
82992;SDS011;72811;50.844;3.228;2023-10-08T10:55:03;14.23;;;6.25;;
82992;SDS011;72811;50.844;3.228;2023-10-08T10:57:41;12.63;;;6.35;;
82992;SDS011;72811;50.844;3.228;2023-10-08T11:00:29;11.40;;;6.95;;
82992;SDS011;72811;50.844;3.228;2023-10-08T11:02:59;12.30;;;6.18;;
82992;SDS011;72811;50.844;3.228;2023-10-08T11:05:35;15.63;;;6.40;;
82992;SDS011;72811;50.844;3.228;2023-10-08T11:08:05;11.10;;;5.80;;
82992;SDS011;72811;50.844;3.228;2023-10-08T11:10:36;11.52;;;6.32;;
82992;SDS011;72811;50.844;3.228;2023-10-08T11:13:21;10.73;;;6.20;;
82992;SDS011;72811;50.844;3.228;2023-10-08T11:15:53;14.88;;;6.50;;
82992;SDS011;72811;50.844;3.228;2023-10-08T11:18:21;12.52;;;6.28;;
82992;SDS011;72811;50.844;3.228;2023-10-08T11:20:48;15.25;;;6.85;;
82992;SDS011;72811;50.844;3.228;2023-10-08T11:23:36;11.77;;;5.90;;
82992;SDS011;72811;50.844;3.228;2023-10-08T11:26:03;12.55;;;6.57;;
82992;SDS011;72811;50.844;3.228;2023-10-08T11:28:34;15.40;;;6.65;;
82992;SDS011;72811;50.844;3.228;2023-10-08T11:31:07;13.15;;;7.00;;
82992;SDS011;72811;50.844;3.228;2023-10-08T11:33:42;13.00;;;6.32;;
82992;SDS011;72811;50.844;3.228;2023-10-08T11:36:21;15.43;;;6.32;;
82992;SDS011;72811;50.844;3.228;2023-10-08T11:38:54;13.13;;;6.68;;
82992;SDS011;72811;50.844;3.228;2023-10-08T11:41:31;12.13;;;6.30;;
82992;SDS011;72811;50.844;3.228;2023-10-08T11:44:09;13.05;;;6.30;;
82992;SDS011;72811;50.844;3.228;2023-10-08T11:46:38;10.90;;;6.05;;
82992;SDS011;72811;50.844;3.228;2023-10-08T11:49:04;10.00;;;5.72;;
82992;SDS011;72811;50.844;3.228;2023-10-08T11:51:31;10.52;;;5.80;;
82992;SDS011;72811;50.844;3.228;2023-10-08T11:53:58;14.95;;;6.47;;
82992;SDS011;72811;50.844;3.228;2023-10-08T11:56:30;12.45;;;5.88;;
82992;SDS011;72811;50.844;3.228;2023-10-08T11:59:01;12.52;;;6.25;;
82992;SDS011;72811;50.844;3.228;2023-10-08T12:01:33;11.52;;;7.10;;
82992;SDS011;72811;50.844;3.228;2023-10-08T12:04:07;13.30;;;6.22;;
82992;SDS011;72811;50.844;3.228;2023-10-08T12:06:38;11.15;;;5.78;;
82992;SDS011;72811;50.844;3.228;2023-10-08T12:09:04;10.70;;;5.93;;
82992;SDS011;72811;50.844;3.228;2023-10-08T12:11:37;12.80;;;6.10;;
82992;SDS011;72811;50.844;3.228;2023-10-08T12:14:03;10.95;;;5.72;;
82992;SDS011;72811;50.844;3.228;2023-10-08T12:16:30;11.48;;;5.55;;
82992;SDS011;72811;50.844;3.228;2023-10-08T12:19:00;11.25;;;5.75;;
82992;SDS011;72811;50.844;3.228;2023-10-08T12:21:27;10.77;;;5.93;;
82992;SDS011;72811;50.844;3.228;2023-10-08T12:23:57;9.27;;;5.55;;
82992;SDS011;72811;50.844;3.228;2023-10-08T12:26:23;14.32;;;5.55;;
82992;SDS011;72811;50.844;3.228;2023-10-08T12:28:49;10.80;;;5.30;;
82992;SDS011;72811;50.844;3.228;2023-10-08T12:31:16;8.95;;;4.90;;
82992;SDS011;72811;50.844;3.228;2023-10-08T12:33:46;10.23;;;5.32;;
82992;SDS011;72811;50.844;3.228;2023-10-08T12:36:24;11.63;;;5.20;;
82992;SDS011;72811;50.844;3.228;2023-10-08T12:38:58;11.23;;;5.40;;
82992;SDS011;72811;50.844;3.228;2023-10-08T12:41:24;13.15;;;6.00;;
82992;SDS011;72811;50.844;3.228;2023-10-08T12:43:52;9.77;;;5.25;;
82992;SDS011;72811;50.844;3.228;2023-10-08T12:46:18;8.73;;;5.35;;
82992;SDS011;72811;50.844;3.228;2023-10-08T12:48:52;9.55;;;5.63;;
82992;SDS011;72811;50.844;3.228;2023-10-08T12:51:21;9.85;;;4.90;;
82992;SDS011;72811;50.844;3.228;2023-10-08T12:53:49;11.35;;;5.05;;
82992;SDS011;72811;50.844;3.228;2023-10-08T12:56:29;10.27;;;5.00;;
82992;SDS011;72811;50.844;3.228;2023-10-08T12:59:04;13.88;;;5.55;;
82992;SDS011;72811;50.844;3.228;2023-10-08T13:04:01;8.90;;;5.10;;
82992;SDS011;72811;50.844;3.228;2023-10-08T13:06:32;8.00;;;5.00;;
82992;SDS011;72811;50.844;3.228;2023-10-08T13:09:04;8.68;;;5.32;;
82992;SDS011;72811;50.844;3.228;2023-10-08T13:11:39;10.43;;;5.10;;
82992;SDS011;72811;50.844;3.228;2023-10-08T13:14:06;9.10;;;4.90;;
82992;SDS011;72811;50.844;3.228;2023-10-08T13:16:32;9.43;;;4.97;;
82992;SDS011;72811;50.844;3.228;2023-10-08T13:18:58;10.38;;;5.05;;
82992;SDS011;72811;50.844;3.228;2023-10-08T13:21:25;9.60;;;5.05;;
82992;SDS011;72811;50.844;3.228;2023-10-08T13:23:53;7.80;;;4.93;;
82992;SDS011;72811;50.844;3.228;2023-10-08T13:26:22;8.77;;;4.75;;
82992;SDS011;72811;50.844;3.228;2023-10-08T13:28:50;7.57;;;4.35;;
82992;SDS011;72811;50.844;3.228;2023-10-08T13:31:19;8.50;;;4.93;;
82992;SDS011;72811;50.844;3.228;2023-10-08T13:33:46;9.95;;;5.32;;
82992;SDS011;72811;50.844;3.228;2023-10-08T13:36:17;8.95;;;4.50;;
82992;SDS011;72811;50.844;3.228;2023-10-08T13:38:43;7.10;;;4.15;;
82992;SDS011;72811;50.844;3.228;2023-10-08T13:41:11;11.60;;;4.65;;
82992;SDS011;72811;50.844;3.228;2023-10-08T13:43:46;8.02;;;4.75;;
82992;SDS011;72811;50.844;3.228;2023-10-08T13:46:17;8.43;;;4.40;;
82992;SDS011;72811;50.844;3.228;2023-10-08T13:48:45;8.70;;;4.88;;
82992;SDS011;72811;50.844;3.228;2023-10-08T13:51:17;8.05;;;4.40;;
82992;SDS011;72811;50.844;3.228;2023-10-08T13:53:58;8.32;;;4.90;;
82992;SDS011;72811;50.844;3.228;2023-10-08T13:56:28;14.75;;;5.03;;
82992;SDS011;72811;50.844;3.228;2023-10-08T13:58:58;12.27;;;4.82;;
82992;SDS011;72811;50.844;3.228;2023-10-08T14:01:42;10.77;;;5.07;;
82992;SDS011;72811;50.844;3.228;2023-10-08T14:04:16;6.85;;;4.30;;
82992;SDS011;72811;50.844;3.228;2023-10-08T14:06:45;10.77;;;4.75;;
82992;SDS011;72811;50.844;3.228;2023-10-08T14:09:17;7.65;;;4.53;;
82992;SDS011;72811;50.844;3.228;2023-10-08T14:11:48;9.60;;;4.50;;
82992;SDS011;72811;50.844;3.228;2023-10-08T14:14:15;8.90;;;4.45;;
82992;SDS011;72811;50.844;3.228;2023-10-08T14:16:43;9.13;;;4.30;;
82992;SDS011;72811;50.844;3.228;2023-10-08T14:19:09;10.18;;;4.47;;
82992;SDS011;72811;50.844;3.228;2023-10-08T14:21:37;11.38;;;4.72;;
82992;SDS011;72811;50.844;3.228;2023-10-08T14:24:16;7.07;;;4.40;;
82992;SDS011;72811;50.844;3.228;2023-10-08T14:26:42;9.98;;;4.50;;
82992;SDS011;72811;50.844;3.228;2023-10-08T14:29:08;10.52;;;4.78;;
82992;SDS011;72811;50.844;3.228;2023-10-08T14:31:40;9.02;;;4.38;;
82992;SDS011;72811;50.844;3.228;2023-10-08T14:34:11;8.15;;;4.35;;
82992;SDS011;72811;50.844;3.228;2023-10-08T14:36:46;10.23;;;4.65;;
82992;SDS011;72811;50.844;3.228;2023-10-08T14:39:32;9.40;;;4.38;;
82992;SDS011;72811;50.844;3.228;2023-10-08T14:42:17;9.05;;;4.93;;
82992;SDS011;72811;50.844;3.228;2023-10-08T14:45:01;9.02;;;4.50;;
82992;SDS011;72811;50.844;3.228;2023-10-08T14:47:28;9.82;;;4.65;;
82992;SDS011;72811;50.844;3.228;2023-10-08T14:49:54;12.60;;;4.97;;
82992;SDS011;72811;50.844;3.228;2023-10-08T14:52:21;9.55;;;4.32;;
82992;SDS011;72811;50.844;3.228;2023-10-08T14:54:47;10.70;;;5.20;;
82992;SDS011;72811;50.844;3.228;2023-10-08T14:57:16;7.82;;;4.38;;
82992;SDS011;72811;50.844;3.228;2023-10-08T14:59:44;8.68;;;4.63;;
82992;SDS011;72811;50.844;3.228;2023-10-08T15:02:13;10.90;;;4.90;;
82992;SDS011;72811;50.844;3.228;2023-10-08T15:04:39;10.57;;;5.30;;
82992;SDS011;72811;50.844;3.228;2023-10-08T15:07:08;9.48;;;4.80;;
82992;SDS011;72811;50.844;3.228;2023-10-08T15:09:36;9.45;;;4.88;;
82992;SDS011;72811;50.844;3.228;2023-10-08T15:12:04;7.45;;;4.60;;
82992;SDS011;72811;50.844;3.228;2023-10-08T15:14:33;14.35;;;5.00;;
82992;SDS011;72811;50.844;3.228;2023-10-08T15:17:00;12.07;;;4.72;;
82992;SDS011;72811;50.844;3.228;2023-10-08T15:19:26;9.90;;;4.70;;
82992;SDS011;72811;50.844;3.228;2023-10-08T15:21:52;13.57;;;7.72;;
82992;SDS011;72811;50.844;3.228;2023-10-08T15:24:18;10.38;;;5.65;;
82992;SDS011;72811;50.844;3.228;2023-10-08T15:26:47;12.50;;;5.70;;
82992;SDS011;72811;50.844;3.228;2023-10-08T15:29:20;8.77;;;4.80;;
82992;SDS011;72811;50.844;3.228;2023-10-08T15:31:53;8.00;;;4.32;;
82992;SDS011;72811;50.844;3.228;2023-10-08T15:34:22;9.88;;;4.63;;
82992;SDS011;72811;50.844;3.228;2023-10-08T15:36:51;8.45;;;4.40;;
82992;SDS011;72811;50.844;3.228;2023-10-08T15:39:20;10.55;;;4.65;;